createdAt,value
2023-04-23T00:01:17.148Z,99.90
2023-04-23T00:03:45.487Z,99.90
2023-04-23T00:06:13.100Z,99.90
2023-04-23T00:08:41.585Z,99.90
2023-04-23T00:11:09.962Z,99.90
2023-04-23T00:13:37.441Z,99.90
2023-04-23T00:16:05.019Z,99.90
2023-04-23T00:18:32.012Z,99.90
2023-04-23T00:20:58.858Z,99.90
2023-04-23T00:23:25.849Z,99.90
2023-04-23T00:25:52.657Z,99.90
2023-04-23T00:28:21.954Z,99.90
2023-04-23T00:30:49.096Z,99.90
2023-04-23T00:33:16.076Z,99.90
2023-04-23T00:35:42.908Z,99.90
2023-04-23T00:38:09.778Z,99.90
2023-04-23T00:40:37.106Z,99.90
2023-04-23T00:43:04.776Z,99.90
2023-04-23T00:45:31.907Z,99.90
2023-04-23T00:47:59.162Z,99.90
2023-04-23T00:50:26.351Z,99.90
2023-04-23T00:52:53.232Z,99.90
2023-04-23T00:55:22.856Z,99.90
2023-04-23T00:57:50.478Z,99.90
2023-04-23T01:00:18.711Z,99.90
2023-04-23T01:02:47.678Z,99.90
2023-04-23T01:05:16.060Z,99.90
2023-04-23T01:07:44.743Z,99.90
2023-04-23T01:10:12.381Z,99.90
2023-04-23T01:12:39.458Z,99.90
2023-04-23T01:15:08.844Z,99.90
2023-04-23T01:17:35.848Z,99.90
2023-04-23T01:20:02.855Z,99.90
2023-04-23T01:22:29.694Z,99.90
2023-04-23T01:24:56.994Z,99.90
2023-04-23T01:27:25.016Z,99.90
2023-04-23T01:29:52.888Z,99.90
2023-04-23T01:32:20.303Z,99.90
2023-04-23T01:34:48.270Z,99.90
2023-04-23T01:37:16.094Z,99.90
2023-04-23T01:39:42.892Z,99.90
2023-04-23T01:42:09.687Z,99.90
2023-04-23T01:44:36.692Z,99.90
2023-04-23T01:47:06.851Z,99.90
2023-04-23T01:49:34.060Z,99.90
2023-04-23T01:52:00.865Z,99.90
2023-04-23T01:54:27.614Z,99.90
2023-04-23T01:56:55.779Z,99.90
2023-04-23T01:59:23.045Z,99.90
2023-04-23T02:01:50.776Z,99.90
2023-04-23T02:04:18.510Z,99.90
2023-04-23T02:06:47.978Z,99.90
2023-04-23T02:09:14.872Z,99.90
2023-04-23T02:11:41.638Z,99.90
2023-04-23T02:14:09.555Z,99.90
2023-04-23T02:16:36.557Z,99.90
2023-04-23T02:19:03.573Z,99.90
2023-04-23T02:21:32.120Z,99.90
2023-04-23T02:23:59.030Z,99.90
2023-04-23T02:26:26.312Z,99.90
2023-04-23T02:28:53.089Z,99.90
2023-04-23T02:31:20.926Z,99.90
2023-04-23T02:33:47.919Z,99.90
2023-04-23T02:36:14.875Z,99.90
2023-04-23T02:38:42.539Z,99.90
2023-04-23T02:41:09.577Z,99.90
2023-04-23T02:43:36.422Z,99.90
2023-04-23T02:46:09.558Z,99.90
2023-04-23T02:48:38.894Z,99.90
2023-04-23T02:51:06.682Z,99.90
2023-04-23T02:53:33.715Z,99.90
2023-04-23T02:56:01.571Z,99.90
2023-04-23T02:58:28.548Z,99.90
2023-04-23T03:00:55.528Z,99.90
2023-04-23T03:03:22.714Z,99.90
2023-04-23T03:05:49.770Z,99.90
2023-04-23T03:08:16.569Z,99.90
2023-04-23T03:10:43.619Z,99.90
2023-04-23T03:13:10.502Z,99.90
2023-04-23T03:15:37.319Z,99.90
2023-04-23T03:18:06.144Z,99.90
2023-04-23T03:20:32.959Z,99.90
2023-04-23T03:22:59.753Z,99.90
2023-04-23T03:25:26.550Z,99.90
2023-04-23T03:27:53.810Z,99.90
2023-04-23T03:30:20.890Z,99.90
2023-04-23T03:32:48.432Z,99.90
2023-04-23T03:35:15.234Z,99.90
2023-04-23T03:37:42.184Z,99.90
2023-04-23T03:40:10.024Z,99.90
2023-04-23T03:42:37.072Z,99.90
2023-04-23T03:45:04.661Z,99.90
2023-04-23T03:47:31.684Z,99.90
2023-04-23T03:49:58.599Z,99.90
2023-04-23T03:52:25.768Z,99.90
2023-04-23T03:54:52.527Z,99.90
2023-04-23T03:57:20.267Z,99.90
2023-04-23T03:59:47.049Z,99.90
2023-04-23T04:02:14.064Z,99.90
2023-04-23T04:04:43.078Z,99.90
2023-04-23T04:07:12.106Z,99.90
2023-04-23T04:09:39.845Z,99.90
2023-04-23T04:12:07.215Z,99.90
2023-04-23T04:14:34.079Z,99.90
2023-04-23T04:17:00.999Z,99.90
2023-04-23T04:19:27.775Z,99.90
2023-04-23T04:21:54.537Z,99.90
2023-04-23T04:24:23.709Z,99.90
2023-04-23T04:26:52.764Z,99.90
2023-04-23T04:29:21.354Z,99.90
2023-04-23T04:31:48.949Z,99.90
2023-04-23T04:34:15.967Z,99.90
2023-04-23T04:36:42.862Z,99.90
2023-04-23T04:39:09.922Z,99.90
2023-04-23T04:41:37.428Z,99.90
2023-04-23T04:44:04.483Z,99.90
2023-04-23T04:46:32.011Z,99.90
2023-04-23T04:48:59.052Z,99.90
2023-04-23T04:51:27.065Z,99.90
2023-04-23T04:53:55.090Z,99.90
2023-04-23T04:56:24.125Z,99.90
2023-04-23T04:58:50.965Z,99.90
2023-04-23T05:01:18.425Z,99.90
2023-04-23T05:03:45.655Z,99.90
2023-04-23T05:06:12.573Z,99.90
2023-04-23T05:08:39.789Z,99.90
2023-04-23T05:11:06.615Z,99.90
2023-04-23T05:13:33.364Z,99.90
2023-04-23T05:16:00.228Z,99.90
2023-04-23T05:18:27.048Z,99.90
2023-04-23T05:20:53.864Z,99.90
2023-04-23T05:23:20.678Z,99.90
2023-04-23T05:25:47.488Z,99.90
2023-04-23T05:28:15.492Z,99.90
2023-04-23T05:30:42.322Z,99.90
2023-04-23T05:33:09.336Z,99.90
2023-04-23T05:35:36.688Z,99.90
2023-04-23T05:38:04.976Z,99.90
2023-04-23T05:40:32.318Z,99.90
2023-04-23T05:42:59.641Z,99.90
2023-04-23T05:45:26.595Z,99.90
2023-04-23T05:47:53.443Z,99.90
2023-04-23T05:50:21.387Z,99.90
2023-04-23T05:52:48.286Z,99.90
2023-04-23T05:55:20.504Z,99.90
2023-04-23T05:57:47.577Z,99.90
2023-04-23T06:00:14.622Z,99.90
2023-04-23T06:02:42.002Z,99.90
2023-04-23T06:05:10.147Z,99.90
2023-04-23T06:07:37.477Z,99.90
2023-04-23T06:10:05.670Z,99.90
2023-04-23T06:12:32.613Z,99.90
2023-04-23T06:14:59.439Z,99.90
2023-04-23T06:17:26.301Z,99.90
2023-04-23T06:19:53.212Z,99.90
2023-04-23T06:22:20.154Z,99.90
2023-04-23T06:24:49.137Z,99.90
2023-04-23T06:27:16.167Z,99.90
2023-04-23T06:29:50.309Z,99.90
2023-04-23T06:32:20.403Z,99.90
2023-04-23T06:35:00.025Z,99.90
2023-04-23T06:37:29.804Z,99.90
2023-04-23T06:39:57.239Z,99.90
2023-04-23T06:42:24.228Z,99.90
2023-04-23T06:44:52.124Z,99.80
2023-04-23T06:47:20.184Z,98.60
2023-04-23T06:49:47.038Z,97.50
2023-04-23T06:52:13.991Z,96.40
2023-04-23T06:54:42.565Z,96.10
2023-04-23T06:57:10.019Z,95.10
2023-04-23T06:59:36.946Z,96.20
2023-04-23T07:02:06.944Z,95.50
2023-04-23T07:04:34.373Z,95.70
2023-04-23T07:07:01.443Z,94.10
2023-04-23T07:09:29.296Z,95.50
2023-04-23T07:11:56.318Z,94.30
2023-04-23T07:14:23.120Z,93.50
2023-04-23T07:16:50.256Z,94.40
2023-04-23T07:19:17.068Z,93.30
2023-04-23T07:21:43.852Z,93.40
2023-04-23T07:24:11.316Z,93.70
2023-04-23T07:26:38.239Z,92.60
2023-04-23T07:29:11.139Z,93.40
2023-04-23T07:31:41.601Z,92.40
2023-04-23T07:34:09.866Z,92.60
2023-04-23T07:36:37.098Z,92.00
2023-04-23T07:39:06.705Z,91.30
2023-04-23T07:41:33.799Z,91.50
2023-04-23T07:44:01.062Z,91.40
2023-04-23T07:46:28.020Z,91.50
2023-04-23T07:48:55.593Z,91.80
2023-04-23T07:51:26.561Z,91.30
2023-04-23T07:53:54.515Z,91.20
2023-04-23T07:56:22.571Z,92.20
2023-04-23T07:58:49.529Z,91.00
2023-04-23T08:01:16.657Z,91.80
2023-04-23T08:03:43.676Z,87.70
2023-04-23T08:06:12.447Z,90.10
2023-04-23T08:08:39.560Z,89.60
2023-04-23T08:11:07.342Z,88.20
2023-04-23T08:13:34.187Z,90.40
2023-04-23T08:16:01.087Z,85.80
2023-04-23T08:18:27.980Z,84.80
2023-04-23T08:20:56.231Z,85.80
2023-04-23T08:23:23.214Z,88.00
2023-04-23T08:25:50.199Z,83.20
2023-04-23T08:28:19.713Z,84.40
2023-04-23T08:30:46.978Z,83.60
2023-04-23T08:33:14.511Z,84.50
2023-04-23T08:35:41.328Z,85.00
2023-04-23T08:38:08.173Z,82.10
2023-04-23T08:40:37.716Z,80.00
2023-04-23T08:43:14.975Z,80.30
2023-04-23T08:45:43.666Z,78.30
2023-04-23T08:48:10.999Z,79.80
2023-04-23T08:50:39.345Z,80.10
2023-04-23T08:53:07.089Z,77.60
2023-04-23T08:55:35.802Z,79.10
2023-04-23T08:58:06.370Z,79.80
2023-04-23T09:00:34.873Z,78.10
2023-04-23T09:03:02.200Z,80.20
2023-04-23T09:05:29.550Z,81.10
2023-04-23T09:07:57.946Z,80.30
2023-04-23T09:10:24.876Z,79.50
2023-04-23T09:12:52.107Z,77.30
2023-04-23T09:15:19.085Z,78.20
2023-04-23T09:17:47.413Z,78.10
2023-04-23T09:20:15.775Z,74.80
2023-04-23T09:22:48.077Z,75.60
2023-04-23T09:25:20.282Z,77.70
2023-04-23T09:27:48.499Z,78.00
2023-04-23T09:30:16.911Z,79.70
2023-04-23T09:32:46.125Z,75.60
2023-04-23T09:35:17.811Z,77.40
2023-04-23T09:37:53.613Z,73.70
2023-04-23T09:40:23.627Z,77.80
2023-04-23T09:42:55.775Z,72.30
2023-04-23T09:45:25.149Z,71.00
2023-04-23T09:47:58.776Z,70.20
2023-04-23T09:50:37.067Z,69.10
2023-04-23T09:53:08.402Z,69.50
2023-04-23T09:55:39.803Z,68.90
2023-04-23T09:58:11.174Z,69.80
2023-04-23T10:00:39.089Z,67.90
2023-04-23T10:03:10.101Z,67.30
2023-04-23T10:08:16.308Z,70.00
2023-04-23T10:10:57.546Z,70.80
2023-04-23T10:13:29.982Z,73.30
2023-04-23T10:16:07.115Z,69.30
2023-04-23T10:18:41.482Z,70.00
2023-04-23T10:21:08.934Z,68.60
2023-04-23T10:23:37.477Z,67.90
2023-04-23T10:26:06.139Z,71.00
2023-04-23T10:28:34.339Z,67.70
2023-04-23T10:31:02.336Z,69.10
2023-04-23T10:33:37.470Z,69.10
2023-04-23T10:36:09.822Z,71.40
2023-04-23T10:38:45.427Z,69.40
2023-04-23T10:41:23.720Z,67.60
2023-04-23T10:43:52.747Z,69.30
2023-04-23T10:46:32.896Z,67.30
2023-04-23T10:49:07.048Z,67.40
2023-04-23T10:52:14.906Z,66.70
2023-04-23T10:54:22.634Z,66.90
2023-04-23T10:57:03.026Z,64.90
2023-04-23T10:59:34.361Z,63.20
2023-04-23T11:02:12.268Z,61.60
2023-04-23T11:04:45.935Z,60.80
2023-04-23T11:07:13.760Z,63.30
2023-04-23T11:09:42.631Z,61.00
2023-04-23T11:12:20.725Z,61.70
2023-04-23T11:14:49.981Z,64.20
2023-04-23T11:17:24.945Z,62.40
2023-04-23T11:20:13.680Z,61.70
2023-04-23T11:22:44.126Z,65.50
2023-04-23T11:25:13.307Z,62.70
2023-04-23T11:27:42.147Z,59.70
2023-04-23T11:30:13.765Z,61.60
2023-04-23T11:32:41.874Z,61.50
2023-04-23T11:35:11.402Z,62.40
2023-04-23T11:37:41.151Z,62.40
2023-04-23T11:40:14.073Z,62.70
2023-04-23T11:42:47.965Z,64.20
2023-04-23T11:45:23.721Z,62.20
2023-04-23T11:47:56.131Z,63.00
2023-04-23T11:50:25.201Z,62.00
2023-04-23T11:52:52.890Z,66.50
2023-04-23T11:55:20.861Z,63.60
2023-04-23T11:57:49.559Z,62.80
2023-04-23T12:00:24.054Z,63.60
2023-04-23T12:02:52.299Z,64.70
2023-04-23T12:05:39.296Z,63.40
2023-04-23T12:08:16.233Z,61.00
2023-04-23T12:10:54.501Z,61.80
2023-04-23T12:13:27.427Z,65.10
2023-04-23T12:15:56.754Z,65.60
2023-04-23T12:18:39.319Z,65.30
2023-04-23T12:21:06.781Z,67.40
2023-04-23T12:23:36.005Z,66.60
2023-04-23T12:26:03.407Z,66.40
2023-04-23T12:28:30.487Z,63.00
2023-04-23T12:31:02.205Z,65.10
2023-04-23T12:33:30.518Z,65.40
2023-04-23T12:35:58.103Z,64.70
2023-04-23T12:38:27.558Z,63.20
2023-04-23T12:41:01.879Z,63.60
2023-04-23T12:43:28.939Z,65.00
2023-04-23T12:45:56.320Z,66.20
2023-04-23T12:48:23.079Z,65.60
2023-04-23T12:50:49.902Z,61.00
2023-04-23T12:53:19.286Z,61.90
2023-04-23T12:55:46.192Z,62.60
2023-04-23T12:58:12.996Z,62.10
2023-04-23T13:00:39.834Z,61.50
2023-04-23T13:03:06.916Z,61.50
2023-04-23T13:05:34.102Z,62.10
2023-04-23T13:08:01.486Z,61.20
2023-04-23T13:10:30.910Z,62.00
2023-04-23T13:12:57.753Z,63.00
2023-04-23T13:15:25.736Z,63.90
2023-04-23T13:17:53.745Z,65.20
2023-04-23T13:20:21.336Z,63.60
2023-04-23T13:22:48.087Z,64.60
2023-04-23T13:25:14.880Z,64.70
2023-04-23T13:27:41.652Z,65.10
2023-04-23T13:30:09.105Z,63.30
2023-04-23T13:32:35.983Z,62.50
2023-04-23T13:35:05.139Z,64.00
2023-04-23T13:37:32.405Z,63.60
2023-04-23T13:39:59.474Z,61.80
2023-04-23T13:42:26.381Z,61.20
2023-04-23T13:44:53.221Z,61.80
2023-04-23T13:47:20.071Z,61.50
2023-04-23T13:49:47.025Z,59.90
2023-04-23T13:52:13.870Z,59.80
2023-04-23T13:54:40.631Z,59.30
2023-04-23T13:57:07.485Z,63.50
2023-04-23T13:59:34.339Z,62.10
2023-04-23T14:02:01.173Z,64.00
2023-04-23T14:04:28.045Z,66.20
2023-04-23T14:06:54.832Z,60.90
2023-04-23T14:09:22.535Z,60.20
2023-04-23T14:11:49.690Z,61.90
2023-04-23T14:14:16.854Z,61.70
2023-04-23T14:16:43.919Z,62.20
2023-04-23T14:19:10.675Z,66.60
2023-04-23T14:21:37.994Z,63.90
2023-04-23T14:24:34.609Z,65.40
2023-04-23T14:27:03.770Z,65.60
2023-04-23T14:29:36.369Z,67.00
2023-04-23T14:32:03.174Z,66.30
2023-04-23T14:34:30.046Z,65.90
2023-04-23T14:36:56.794Z,66.00
2023-04-23T14:39:25.811Z,65.50
2023-04-23T14:41:53.183Z,65.00
2023-04-23T14:44:20.002Z,65.40
2023-04-23T14:46:46.860Z,66.70
2023-04-23T14:49:14.341Z,66.80
2023-04-23T14:51:41.632Z,67.30
2023-04-23T14:54:08.452Z,67.70
2023-04-23T14:56:35.218Z,66.40
2023-04-23T14:59:02.344Z,66.60
2023-04-23T15:01:29.912Z,66.90
2023-04-23T15:03:56.980Z,67.20
2023-04-23T15:06:23.790Z,68.80
2023-04-23T15:08:50.569Z,68.30
2023-04-23T15:11:17.386Z,68.90
2023-04-23T15:14:08.765Z,70.00
2023-04-23T15:19:07.142Z,70.20
2023-04-23T15:21:34.170Z,70.10
2023-04-23T15:24:01.141Z,68.70
2023-04-23T15:26:28.190Z,70.50
2023-04-23T15:28:55.351Z,72.30
2023-04-23T15:31:22.125Z,69.60
2023-04-23T15:33:48.917Z,70.30
2023-04-23T15:36:15.688Z,70.40
2023-04-23T15:38:42.584Z,70.10
2023-04-23T15:41:09.444Z,73.00
2023-04-23T15:43:36.301Z,72.70
2023-04-23T15:46:03.153Z,71.70
2023-04-23T15:48:30.005Z,72.00
2023-04-23T15:50:56.970Z,71.60
2023-04-23T15:53:23.844Z,71.30
2023-04-23T15:55:51.612Z,72.20
2023-04-23T15:58:19.537Z,73.10
2023-04-23T16:00:46.493Z,73.10
2023-04-23T16:03:15.254Z,73.80
2023-04-23T16:05:42.631Z,74.20
2023-04-23T16:08:09.746Z,74.50
2023-04-23T16:10:38.248Z,74.90
2023-04-23T16:13:06.292Z,75.70
2023-04-23T16:15:33.447Z,76.00
2023-04-23T16:18:00.526Z,75.90
2023-04-23T16:20:28.481Z,76.90
2023-04-23T16:22:56.128Z,76.40
2023-04-23T16:25:22.972Z,77.30
2023-04-23T16:27:49.887Z,76.40
2023-04-23T16:30:16.911Z,77.70
2023-04-23T16:32:43.738Z,77.60
2023-04-23T16:35:10.712Z,77.90
2023-04-23T16:37:37.831Z,77.00
2023-04-23T16:40:05.919Z,78.10
2023-04-23T16:42:32.770Z,78.20
2023-04-23T16:44:59.569Z,77.90
2023-04-23T16:47:26.942Z,78.40
2023-04-23T16:49:53.844Z,78.40
2023-04-23T16:52:20.737Z,79.10
2023-04-23T16:54:49.495Z,81.50
2023-04-23T16:57:17.246Z,80.60
2023-04-23T16:59:44.459Z,80.10
2023-04-23T17:02:11.743Z,81.90
2023-04-23T17:04:39.033Z,83.60
2023-04-23T17:07:06.144Z,84.40
2023-04-23T17:09:33.014Z,85.30
2023-04-23T17:11:59.779Z,85.00
2023-04-23T17:14:26.816Z,85.20
2023-04-23T17:16:53.661Z,85.70
2023-04-23T17:19:20.421Z,87.00
2023-04-23T17:21:47.230Z,89.50
2023-04-23T17:24:14.079Z,91.60
2023-04-23T17:26:41.050Z,96.00
2023-04-23T17:29:07.909Z,99.90
2023-04-23T17:31:36.880Z,99.90
2023-04-23T17:34:05.242Z,99.90
2023-04-23T17:36:32.125Z,99.90
2023-04-23T17:38:58.993Z,99.90
2023-04-23T17:41:25.957Z,99.90
2023-04-23T17:43:53.254Z,99.90
2023-04-23T17:46:20.200Z,99.90
2023-04-23T17:48:47.040Z,99.90
2023-04-23T17:51:13.872Z,99.90
2023-04-23T17:53:42.206Z,99.90
2023-04-23T17:56:09.056Z,99.90
2023-04-23T17:58:36.182Z,99.90
2023-04-23T18:01:04.950Z,99.90
2023-04-23T18:03:32.254Z,99.90
2023-04-23T18:05:59.503Z,99.90
2023-04-23T18:08:26.319Z,99.90
2023-04-23T18:10:53.357Z,99.90
2023-04-23T18:13:20.287Z,99.90
2023-04-23T18:15:49.946Z,99.90
2023-04-23T18:18:18.080Z,99.90
2023-04-23T18:20:46.264Z,99.90
2023-04-23T18:23:14.318Z,99.90
2023-04-23T18:25:41.973Z,99.90
2023-04-23T18:28:08.882Z,99.90
2023-04-23T18:30:38.013Z,99.90
2023-04-23T18:33:13.782Z,99.90
2023-04-23T18:35:46.987Z,99.90
2023-04-23T18:38:45.551Z,99.90
2023-04-23T18:41:12.346Z,99.90
2023-04-23T18:43:39.256Z,99.90
2023-04-23T18:46:06.243Z,99.90
2023-04-23T18:48:33.004Z,99.90
2023-04-23T18:51:25.296Z,99.90
2023-04-23T18:53:52.460Z,99.90
2023-04-23T18:56:19.266Z,99.90
2023-04-23T18:58:46.166Z,99.90
2023-04-23T19:01:13.669Z,99.90
2023-04-23T19:03:40.603Z,99.90
2023-04-23T19:06:08.046Z,99.90
2023-04-23T19:08:36.041Z,99.90
2023-04-23T19:11:03.584Z,99.90
2023-04-23T19:13:30.841Z,99.90
2023-04-23T19:15:57.798Z,99.90
2023-04-23T19:18:24.829Z,99.90
2023-04-23T19:20:52.660Z,99.90
2023-04-23T19:23:20.207Z,99.90
2023-04-23T19:25:47.745Z,99.90
2023-04-23T19:28:14.569Z,99.90
2023-04-23T19:30:41.473Z,99.90
2023-04-23T19:33:08.319Z,99.90
2023-04-23T19:35:35.512Z,99.90
2023-04-23T19:38:03.146Z,99.90
2023-04-23T19:40:29.961Z,99.90
2023-04-23T19:42:56.710Z,99.90
2023-04-23T19:45:23.626Z,99.90
2023-04-23T19:47:50.837Z,99.90
2023-04-23T19:50:19.441Z,99.90
2023-04-23T19:52:46.426Z,99.90
2023-04-23T19:55:13.223Z,99.90
2023-04-23T19:57:39.958Z,99.90
2023-04-23T20:00:07.405Z,99.90
2023-04-23T20:02:35.461Z,99.90
2023-04-23T20:05:03.224Z,99.90
2023-04-23T20:07:30.016Z,99.90
2023-04-23T20:09:56.776Z,99.90
2023-04-23T20:12:24.673Z,99.90
2023-04-23T20:14:51.754Z,99.90
2023-04-23T20:17:18.606Z,99.90
2023-04-23T20:19:45.488Z,99.90
2023-04-23T20:22:12.368Z,99.90
2023-04-23T20:24:40.530Z,99.90
2023-04-23T20:27:07.384Z,99.90
2023-04-23T20:29:34.160Z,99.90
2023-04-23T20:32:00.961Z,99.90
2023-04-23T20:34:27.788Z,99.90
2023-04-23T20:36:54.690Z,99.90
2023-04-23T20:39:24.176Z,99.90
2023-04-23T20:41:52.442Z,99.90
2023-04-23T20:44:22.590Z,99.90
2023-04-23T20:46:53.022Z,99.90
2023-04-23T20:49:20.243Z,99.90
2023-04-23T20:51:47.064Z,99.90
2023-04-23T20:54:13.953Z,99.90
2023-04-23T20:56:40.766Z,99.90
2023-04-23T20:59:07.554Z,99.90
2023-04-23T21:01:34.447Z,99.90
2023-04-23T21:04:01.567Z,99.90
2023-04-23T21:06:31.163Z,99.90
2023-04-23T21:08:58.158Z,99.90
2023-04-23T21:11:25.077Z,99.90
2023-04-23T21:13:52.052Z,99.90
2023-04-23T21:16:18.954Z,99.90
2023-04-23T21:18:45.849Z,99.90
2023-04-23T21:21:12.603Z,99.90
2023-04-23T21:23:39.431Z,99.90
2023-04-23T21:26:07.554Z,99.90
2023-04-23T21:28:34.465Z,99.90
2023-04-23T21:31:10.788Z,99.90
2023-04-23T21:33:37.564Z,99.90
2023-04-23T21:36:04.604Z,99.90
2023-04-23T21:38:33.298Z,99.90
2023-04-23T21:41:01.286Z,99.90
2023-04-23T21:43:29.725Z,99.90
2023-04-23T21:45:56.605Z,99.90
2023-04-23T21:48:23.472Z,99.90
2023-04-23T21:50:51.767Z,99.90
2023-04-23T21:53:18.582Z,99.90
2023-04-23T21:55:45.809Z,99.90
2023-04-23T21:58:17.357Z,99.90
2023-04-23T22:00:45.910Z,99.90
2023-04-23T22:03:19.075Z,99.90
2023-04-23T22:06:01.647Z,99.90
2023-04-23T22:08:29.417Z,99.90
2023-04-23T22:10:56.241Z,99.90
2023-04-23T22:13:23.036Z,99.90
2023-04-23T22:15:49.853Z,99.90
2023-04-23T22:18:16.677Z,99.90
2023-04-23T22:20:48.157Z,99.90
2023-04-23T22:23:15.500Z,99.90
2023-04-23T22:25:42.582Z,99.90
2023-04-23T22:28:09.378Z,99.90
2023-04-23T22:30:36.554Z,99.90
2023-04-23T22:33:05.297Z,99.90
2023-04-23T22:35:32.522Z,99.90
2023-04-23T22:37:59.376Z,99.90
2023-04-23T22:40:26.133Z,99.90
2023-04-23T22:42:52.950Z,99.90
2023-04-23T22:45:19.710Z,99.90
2023-04-23T22:47:46.716Z,99.90
2023-04-23T22:50:13.622Z,99.90
2023-04-23T22:52:40.636Z,99.90
2023-04-23T22:55:08.200Z,99.90
2023-04-23T22:57:35.520Z,99.90
2023-04-23T23:00:02.601Z,99.90
2023-04-23T23:02:29.531Z,99.90
2023-04-23T23:04:56.624Z,99.90
2023-04-23T23:07:23.373Z,99.90
2023-04-23T23:09:50.265Z,99.90
2023-04-23T23:12:17.515Z,99.90
2023-04-23T23:14:44.426Z,99.90
2023-04-23T23:17:11.268Z,99.90
2023-04-23T23:19:38.031Z,99.90
2023-04-23T23:22:04.908Z,99.90
2023-04-23T23:24:32.369Z,99.90
2023-04-23T23:26:59.122Z,99.90
2023-04-23T23:29:25.913Z,99.90
2023-04-23T23:31:52.758Z,99.90
2023-04-23T23:34:19.519Z,99.90
2023-04-23T23:36:48.053Z,99.90
2023-04-23T23:39:18.947Z,99.90
2023-04-23T23:41:47.094Z,99.90
2023-04-23T23:44:14.222Z,99.90
2023-04-23T23:46:41.193Z,99.90
2023-04-23T23:49:10.761Z,99.90
2023-04-23T23:51:37.531Z,99.90
2023-04-23T23:54:04.415Z,99.90
2023-04-23T23:56:31.185Z,99.90
2023-04-23T23:58:57.912Z,99.90
